createdAt,value
2022-09-28T00:01:09.432Z,7.88
2022-09-28T00:03:36.372Z,7.18
2022-09-28T00:06:04.005Z,6.38
2022-09-28T00:08:30.357Z,5.68
2022-09-28T00:10:57.183Z,6.35
2022-09-28T00:13:24.596Z,5.82
2022-09-28T00:16:00.266Z,6.38
2022-09-28T00:18:26.726Z,5.80
2022-09-28T00:21:14.970Z,6.57
2022-09-28T00:24:00.606Z,5.70
2022-09-28T00:26:27.827Z,5.75
2022-09-28T00:28:54.543Z,6.75
2022-09-28T00:31:21.382Z,6.65
2022-09-28T00:33:51.351Z,7.05
2022-09-28T00:36:17.930Z,5.95
2022-09-28T00:38:44.273Z,6.38
2022-09-28T00:41:11.455Z,6.32
2022-09-28T00:43:37.980Z,6.07
2022-09-28T00:46:06.517Z,5.65
2022-09-28T00:48:35.085Z,6.55
2022-09-28T00:51:03.604Z,6.60
2022-09-28T00:53:31.874Z,6.78
2022-09-28T00:56:01.550Z,6.13
2022-09-28T00:58:29.712Z,6.30
2022-09-28T01:00:58.029Z,5.88
2022-09-28T01:03:25.558Z,6.00
2022-09-28T01:05:52.885Z,6.43
2022-09-28T01:08:21.061Z,5.90
2022-09-28T01:10:48.604Z,6.28
2022-09-28T01:13:19.573Z,6.40
2022-09-28T01:15:51.829Z,5.88
2022-09-28T01:18:37.521Z,5.65
2022-09-28T01:21:10.352Z,5.20
2022-09-28T01:23:36.747Z,4.32
2022-09-28T01:26:23.350Z,5.30
2022-09-28T01:28:54.326Z,4.88
2022-09-28T01:31:22.231Z,4.80
2022-09-28T01:33:52.919Z,4.55
2022-09-28T01:36:22.234Z,4.72
2022-09-28T01:38:50.930Z,4.50
2022-09-28T01:41:17.878Z,4.60
2022-09-28T01:43:54.656Z,4.47
2022-09-28T01:46:28.819Z,4.13
2022-09-28T01:48:57.246Z,4.40
2022-09-28T01:51:38.664Z,4.47
2022-09-28T01:56:34.424Z,3.90
2022-09-28T01:59:10.547Z,4.07
2022-09-28T02:01:41.536Z,4.15
2022-09-28T02:04:12.096Z,3.75
2022-09-28T02:06:41.874Z,3.58
2022-09-28T02:09:10.302Z,3.30
2022-09-28T02:11:43.269Z,3.08
2022-09-28T02:14:11.906Z,3.67
2022-09-28T02:16:43.155Z,3.78
2022-09-28T02:19:11.389Z,3.70
2022-09-28T02:21:41.634Z,4.57
2022-09-28T02:24:13.042Z,3.83
2022-09-28T02:26:42.359Z,3.60
2022-09-28T02:29:08.838Z,2.80
2022-09-28T02:31:35.447Z,3.05
2022-09-28T02:34:01.906Z,4.15
2022-09-28T02:36:28.943Z,4.40
2022-09-28T02:38:57.216Z,4.57
2022-09-28T02:41:46.068Z,3.25
2022-09-28T02:44:12.455Z,3.13
2022-09-28T02:46:52.587Z,2.75
2022-09-28T02:49:34.338Z,2.65
2022-09-28T02:52:04.320Z,3.00
2022-09-28T02:54:36.867Z,2.35
2022-09-28T02:57:11.028Z,2.42
2022-09-28T02:59:37.370Z,2.42
2022-09-28T03:02:06.840Z,2.38
2022-09-28T03:04:41.430Z,1.83
2022-09-28T03:07:22.377Z,2.47
2022-09-28T03:10:04.046Z,1.85
2022-09-28T03:12:31.400Z,2.05
2022-09-28T03:15:12.274Z,2.00
2022-09-28T03:17:39.626Z,1.70
2022-09-28T03:20:06.315Z,1.50
2022-09-28T03:22:32.820Z,1.70
2022-09-28T03:24:59.440Z,1.52
2022-09-28T03:27:25.838Z,3.88
2022-09-28T03:29:52.466Z,3.15
2022-09-28T03:32:19.163Z,4.22
2022-09-28T03:34:45.511Z,2.97
2022-09-28T03:37:11.963Z,1.85
2022-09-28T03:39:38.292Z,1.83
2022-09-28T03:42:04.747Z,1.52
2022-09-28T03:44:34.696Z,1.35
2022-09-28T03:47:01.224Z,1.23
2022-09-28T03:49:27.505Z,1.65
2022-09-28T03:51:53.872Z,1.30
2022-09-28T03:54:20.241Z,1.50
2022-09-28T03:56:46.952Z,1.27
2022-09-28T03:59:13.399Z,1.13
2022-09-28T04:01:39.833Z,3.50
2022-09-28T04:04:06.388Z,1.35
2022-09-28T04:06:32.808Z,1.40
2022-09-28T04:08:59.596Z,1.38
2022-09-28T04:11:26.956Z,1.60
2022-09-28T04:13:53.420Z,1.25
2022-09-28T04:16:19.835Z,1.30
2022-09-28T04:19:00.416Z,1.48
2022-09-28T04:21:50.968Z,1.00
2022-09-28T04:24:18.013Z,1.40
2022-09-28T04:26:44.396Z,2.63
2022-09-28T04:29:18.153Z,1.45
2022-09-28T04:31:55.902Z,1.85
2022-09-28T04:34:35.884Z,1.30
2022-09-28T04:37:04.559Z,1.67
2022-09-28T04:39:30.866Z,0.80
2022-09-28T04:41:57.263Z,1.13
2022-09-28T04:44:23.707Z,0.90
2022-09-28T04:46:56.183Z,1.38
2022-09-28T04:49:28.483Z,1.00
2022-09-28T04:51:57.561Z,0.93
2022-09-28T04:54:24.054Z,2.67
2022-09-28T04:56:51.119Z,2.50
2022-09-28T04:59:17.560Z,2.03
2022-09-28T05:01:44.633Z,1.63
2022-09-28T05:04:24.953Z,5.65
2022-09-28T05:07:10.611Z,1.67
2022-09-28T05:09:38.584Z,1.10
2022-09-28T05:12:05.420Z,1.27
2022-09-28T05:14:31.792Z,1.60
2022-09-28T05:16:58.409Z,1.40
2022-09-28T05:19:24.756Z,1.20
2022-09-28T05:21:52.393Z,1.60
2022-09-28T05:24:18.719Z,1.15
2022-09-28T05:26:52.031Z,1.45
2022-09-28T05:29:19.083Z,3.63
2022-09-28T05:32:04.098Z,0.90
2022-09-28T05:34:49.408Z,1.25
2022-09-28T05:37:22.411Z,1.10
2022-09-28T05:39:48.738Z,1.10
2022-09-28T05:42:15.063Z,1.08
2022-09-28T05:44:42.427Z,1.95
2022-09-28T05:47:11.035Z,4.20
2022-09-28T05:49:37.546Z,2.80
2022-09-28T05:52:03.878Z,2.90
2022-09-28T05:54:34.496Z,2.30
2022-09-28T05:57:01.027Z,2.00
2022-09-28T05:59:27.495Z,1.80
2022-09-28T06:01:54.324Z,1.70
2022-09-28T06:04:20.897Z,1.63
2022-09-28T06:06:48.016Z,1.65
2022-09-28T06:09:15.551Z,1.55
2022-09-28T06:12:11.358Z,1.40
2022-09-28T06:14:44.673Z,1.58
2022-09-28T06:17:11.614Z,1.60
2022-09-28T06:19:38.956Z,1.60
2022-09-28T06:22:25.587Z,1.40
2022-09-28T06:25:02.206Z,1.80
2022-09-28T06:27:28.525Z,1.52
2022-09-28T06:29:54.873Z,1.52
2022-09-28T06:32:21.227Z,2.85
2022-09-28T06:34:54.014Z,1.48
2022-09-28T06:37:25.891Z,1.42
2022-09-28T06:39:52.697Z,1.65
2022-09-28T06:42:19.327Z,1.30
2022-09-28T06:45:04.612Z,1.63
2022-09-28T06:47:59.519Z,1.20
2022-09-28T06:50:39.569Z,2.20
2022-09-28T06:53:24.366Z,1.95
2022-09-28T06:56:12.631Z,1.60
2022-09-28T06:58:39.192Z,2.10
2022-09-28T07:01:05.947Z,1.80
2022-09-28T07:03:55.403Z,1.95
2022-09-28T07:06:47.133Z,1.98
2022-09-28T07:09:33.553Z,2.15
2022-09-28T07:12:13.361Z,2.20
2022-09-28T07:15:00.735Z,2.25
2022-09-28T07:17:28.200Z,1.92
2022-09-28T07:20:00.387Z,2.38
2022-09-28T07:22:42.244Z,2.40
2022-09-28T07:25:14.137Z,2.50
2022-09-28T07:27:47.082Z,2.15
2022-09-28T07:30:28.618Z,2.50
2022-09-28T07:33:03.295Z,2.30
2022-09-28T07:35:38.844Z,2.20
2022-09-28T07:38:06.504Z,2.50
2022-09-28T07:40:52.135Z,2.22
2022-09-28T07:43:23.071Z,2.50
2022-09-28T07:45:52.907Z,2.17
2022-09-28T07:48:19.977Z,1.95
2022-09-28T07:51:00.356Z,2.20
2022-09-28T07:53:32.262Z,2.83
2022-09-28T07:56:17.487Z,2.22
2022-09-28T07:58:53.392Z,2.15
2022-09-28T08:01:54.540Z,1.77
2022-09-28T08:04:20.944Z,2.03
2022-09-28T08:06:48.220Z,1.40
2022-09-28T08:09:14.654Z,1.83
2022-09-28T08:12:00.129Z,1.83
2022-09-28T08:14:42.166Z,1.50
2022-09-28T08:20:12.817Z,1.50
2022-09-28T08:22:39.824Z,1.20
2022-09-28T08:25:06.606Z,1.20
2022-09-28T08:27:33.559Z,1.27
2022-09-28T08:30:01.098Z,1.10
2022-09-28T08:32:56.386Z,1.20
2022-09-28T08:35:42.110Z,1.10
2022-09-28T08:38:21.356Z,1.10
2022-09-28T08:41:35.901Z,0.93
2022-09-28T08:44:26.732Z,0.93
2022-09-28T08:47:49.182Z,0.75
2022-09-28T08:50:28.515Z,1.00
2022-09-28T08:53:05.805Z,0.90
2022-09-28T08:55:49.762Z,1.00
2022-09-28T08:58:22.257Z,1.13
2022-09-28T09:00:52.792Z,0.75
2022-09-28T09:03:31.603Z,1.00
2022-09-28T09:06:26.769Z,0.82
2022-09-28T09:09:14.383Z,0.70
2022-09-28T09:12:01.311Z,0.70
2022-09-28T09:14:47.067Z,0.70
2022-09-28T09:17:19.771Z,0.60
2022-09-28T09:20:30.781Z,0.60
2022-09-28T09:23:12.254Z,0.70
2022-09-28T09:25:41.271Z,0.60
2022-09-28T09:28:17.691Z,0.60
2022-09-28T09:30:44.009Z,0.60
2022-09-28T09:33:13.419Z,0.55
2022-09-28T09:35:59.700Z,0.50
2022-09-28T09:38:58.029Z,0.60
2022-09-28T09:41:48.194Z,0.50
2022-09-28T09:44:53.260Z,0.50
2022-09-28T09:47:40.547Z,0.50
2022-09-28T09:50:29.806Z,0.47
2022-09-28T09:53:04.692Z,0.50
2022-09-28T09:55:40.535Z,0.45
2022-09-28T09:58:48.698Z,0.47
2022-09-28T10:01:33.578Z,0.40
2022-09-28T10:04:25.841Z,0.50
2022-09-28T10:07:04.778Z,0.50
2022-09-28T10:09:36.039Z,0.40
2022-09-28T10:12:20.596Z,0.57
2022-09-28T10:14:47.366Z,0.50
2022-09-28T10:17:16.100Z,0.50
2022-09-28T10:20:22.100Z,0.60
2022-09-28T10:23:02.030Z,0.60
2022-09-28T10:25:29.868Z,0.60
2022-09-28T10:27:58.701Z,0.60
2022-09-28T10:30:25.584Z,1.08
2022-09-28T10:32:53.635Z,0.68
2022-09-28T10:35:27.040Z,0.85
2022-09-28T10:38:01.606Z,1.05
2022-09-28T10:40:46.772Z,0.68
2022-09-28T10:43:33.572Z,0.90
2022-09-28T10:46:05.644Z,0.70
2022-09-28T10:48:53.895Z,0.73
2022-09-28T10:51:43.781Z,0.90
2022-09-28T10:54:25.579Z,0.90
2022-09-28T10:56:53.460Z,0.70
2022-09-28T10:59:30.444Z,0.70
2022-09-28T11:02:36.462Z,0.63
2022-09-28T11:05:27.612Z,0.77
2022-09-28T11:07:57.288Z,0.50
2022-09-28T11:10:32.831Z,0.68
2022-09-28T11:13:09.435Z,0.50
2022-09-28T11:15:41.259Z,0.50
2022-09-28T11:18:25.065Z,0.60
2022-09-28T11:20:51.689Z,0.60
2022-09-28T11:23:29.435Z,0.60
2022-09-28T11:26:04.156Z,0.40
2022-09-28T11:28:33.109Z,0.50
2022-09-28T11:31:03.081Z,0.63
2022-09-28T11:33:40.222Z,0.47
2022-09-28T11:36:28.230Z,0.40
2022-09-28T11:39:00.600Z,0.60
2022-09-28T11:41:41.927Z,0.95
2022-09-28T11:44:08.533Z,0.50
2022-09-28T11:46:38.136Z,0.50
2022-09-28T11:49:15.663Z,0.43
2022-09-28T11:51:43.609Z,0.40
2022-09-28T11:54:19.456Z,0.43
2022-09-28T11:56:48.534Z,0.77
2022-09-28T11:59:41.256Z,0.40
2022-09-28T12:02:14.811Z,0.30
2022-09-28T12:05:21.590Z,0.40
2022-09-28T12:07:52.767Z,0.47
2022-09-28T12:11:03.102Z,0.50
2022-09-28T12:13:51.958Z,0.70
2022-09-28T12:16:53.513Z,0.70
2022-09-28T12:19:15.955Z,0.70
2022-09-28T12:21:48.371Z,0.60
2022-09-28T12:24:18.403Z,0.80
2022-09-28T12:26:47.538Z,0.80
2022-09-28T12:29:22.771Z,1.33
2022-09-28T12:31:55.661Z,0.90
2022-09-28T12:34:22.193Z,0.60
2022-09-28T12:36:51.848Z,0.60
2022-09-28T12:39:40.643Z,0.93
2022-09-28T12:42:39.086Z,0.65
2022-09-28T12:45:17.380Z,0.70
2022-09-28T12:48:02.200Z,0.60
2022-09-28T12:50:54.560Z,0.50
2022-09-28T12:53:30.991Z,0.60
2022-09-28T12:56:18.090Z,0.85
2022-09-28T12:58:50.676Z,0.60
2022-09-28T13:01:27.623Z,0.40
2022-09-28T13:03:59.800Z,0.40
2022-09-28T13:06:32.008Z,0.40
2022-09-28T13:09:01.375Z,0.60
2022-09-28T13:11:31.908Z,0.40
2022-09-28T13:16:35.845Z,0.20
2022-09-28T13:19:08.536Z,1.00
2022-09-28T13:21:41.588Z,0.20
2022-09-28T13:24:30.948Z,0.20
2022-09-28T13:26:59.456Z,0.10
2022-09-28T13:29:27.048Z,0.20
2022-09-28T13:31:58.185Z,0.13
2022-09-28T13:34:39.327Z,0.10
2022-09-28T13:37:16.704Z,0.30
2022-09-28T13:39:45.907Z,0.20
2022-09-28T13:42:21.909Z,0.20
2022-09-28T13:45:00.310Z,0.20
2022-09-28T13:47:26.571Z,0.20
2022-09-28T13:50:03.292Z,0.50
2022-09-28T13:52:31.854Z,0.20
2022-09-28T13:54:58.389Z,0.35
2022-09-28T13:57:29.512Z,0.40
2022-09-28T14:00:08.747Z,0.40
2022-09-28T14:02:44.378Z,0.40
2022-09-28T14:05:31.203Z,0.47
2022-09-28T14:08:09.759Z,0.30
2022-09-28T14:10:49.667Z,0.65
2022-09-28T14:13:36.487Z,0.50
2022-09-28T14:16:18.003Z,0.70
2022-09-28T14:18:48.419Z,0.60
2022-09-28T14:21:33.682Z,0.80
2022-09-28T14:24:18.843Z,1.00
2022-09-28T14:26:48.279Z,1.20
2022-09-28T14:29:28.935Z,0.90
2022-09-28T14:32:03.548Z,0.68
2022-09-28T14:34:33.552Z,0.65
2022-09-28T14:37:20.447Z,0.63
2022-09-28T14:40:25.493Z,0.70
2022-09-28T14:43:10.559Z,0.50
2022-09-28T14:45:38.471Z,0.55
2022-09-28T14:48:11.530Z,0.60
2022-09-28T14:50:37.856Z,0.60
2022-09-28T14:53:05.379Z,0.75
2022-09-28T14:55:34.652Z,0.60
2022-09-28T14:58:02.308Z,0.70
2022-09-28T15:00:30.480Z,0.90
2022-09-28T15:03:00.002Z,0.77
2022-09-28T15:05:37.968Z,0.80
2022-09-28T15:08:05.647Z,0.93
2022-09-28T15:10:33.163Z,1.05
2022-09-28T15:13:01.701Z,0.90
2022-09-28T15:15:31.686Z,0.73
2022-09-28T15:18:27.538Z,0.80
2022-09-28T15:20:55.468Z,0.80
2022-09-28T15:23:27.191Z,0.80
2022-09-28T15:25:54.350Z,0.80
2022-09-28T15:28:24.887Z,0.75
2022-09-28T15:30:51.645Z,0.80
2022-09-28T15:33:50.247Z,0.75
2022-09-28T15:36:27.782Z,0.85
2022-09-28T15:38:59.436Z,0.73
2022-09-28T15:41:26.243Z,0.65
2022-09-28T15:44:06.830Z,0.63
2022-09-28T15:46:35.013Z,0.70
2022-09-28T15:49:03.129Z,0.90
2022-09-28T15:51:29.708Z,0.68
2022-09-28T15:53:59.025Z,0.70
2022-09-28T15:56:25.861Z,0.60
2022-09-28T15:59:08.704Z,0.90
2022-09-28T16:01:36.840Z,0.80
2022-09-28T16:04:21.858Z,0.70
2022-09-28T16:07:07.538Z,0.50
2022-09-28T16:09:40.292Z,0.70
2022-09-28T16:12:09.528Z,0.57
2022-09-28T16:14:35.915Z,0.70
2022-09-28T16:17:03.861Z,0.55
2022-09-28T16:19:35.669Z,0.70
2022-09-28T16:22:03.661Z,0.70
2022-09-28T16:24:32.915Z,0.80
2022-09-28T16:27:01.231Z,0.55
2022-09-28T16:29:32.953Z,0.82
2022-09-28T16:32:20.215Z,0.70
2022-09-28T16:34:49.879Z,0.80
2022-09-28T16:37:45.383Z,0.70
2022-09-28T16:40:12.570Z,0.93
2022-09-28T16:42:39.978Z,0.90
2022-09-28T16:45:07.558Z,0.90
2022-09-28T16:47:34.330Z,0.80
2022-09-28T16:50:02.315Z,0.88
2022-09-28T16:52:47.033Z,1.27
2022-09-28T16:55:38.863Z,0.80
2022-09-28T16:58:04.570Z,0.88
2022-09-28T17:00:30.888Z,0.93
2022-09-28T17:02:58.289Z,1.00
2022-09-28T17:05:25.481Z,1.05
2022-09-28T17:08:11.924Z,1.17
2022-09-28T17:11:02.652Z,1.00
2022-09-28T17:13:33.838Z,0.98
2022-09-28T17:16:01.500Z,1.30
2022-09-28T17:18:28.038Z,1.20
2022-09-28T17:20:56.650Z,1.20
2022-09-28T17:23:23.205Z,1.55
2022-09-28T17:25:49.531Z,1.88
2022-09-28T17:28:20.683Z,2.60
2022-09-28T17:30:47.328Z,3.00
2022-09-28T17:33:14.151Z,2.42
2022-09-28T17:35:41.446Z,1.98
2022-09-28T17:38:09.913Z,1.88
2022-09-28T17:40:36.550Z,1.60
2022-09-28T17:43:05.639Z,1.40
2022-09-28T17:45:32.866Z,1.63
2022-09-28T17:47:59.748Z,1.30
2022-09-28T17:50:27.863Z,2.00
2022-09-28T17:52:54.519Z,1.52
2022-09-28T17:55:22.613Z,1.40
2022-09-28T17:57:49.280Z,2.65
2022-09-28T18:00:16.227Z,3.15
2022-09-28T18:02:43.707Z,2.60
2022-09-28T18:05:11.078Z,2.17
2022-09-28T18:07:43.133Z,2.28
2022-09-28T18:10:15.797Z,2.42
2022-09-28T18:12:43.193Z,2.33
2022-09-28T18:15:10.169Z,2.40
2022-09-28T18:17:36.922Z,1.95
2022-09-28T18:20:03.574Z,2.00
2022-09-28T18:22:30.043Z,2.33
2022-09-28T18:24:56.419Z,2.00
2022-09-28T18:27:22.900Z,2.38
2022-09-28T18:29:49.225Z,2.60
2022-09-28T18:32:15.559Z,2.60
2022-09-28T18:34:42.008Z,2.70
2022-09-28T18:37:08.450Z,2.78
2022-09-28T18:39:35.275Z,2.10
2022-09-28T18:42:03.247Z,2.40
2022-09-28T18:44:32.995Z,2.40
2022-09-28T18:47:01.268Z,2.50
2022-09-28T18:49:28.059Z,2.20
2022-09-28T18:51:54.411Z,2.45
2022-09-28T18:54:23.180Z,2.90
2022-09-28T18:56:51.157Z,2.70
2022-09-28T18:59:17.547Z,2.90
2022-09-28T19:01:43.905Z,2.58
2022-09-28T19:04:10.777Z,2.55
2022-09-28T19:06:38.564Z,2.40
2022-09-28T19:09:04.986Z,2.38
2022-09-28T19:11:31.291Z,2.45
2022-09-28T19:13:59.154Z,2.55
2022-09-28T19:16:27.201Z,2.13
2022-09-28T19:18:53.933Z,2.85
2022-09-28T19:21:21.066Z,3.35
2022-09-28T19:23:49.766Z,2.55
2022-09-28T19:26:21.172Z,2.63
2022-09-28T19:31:13.997Z,2.40
2022-09-28T19:33:40.739Z,2.58
2022-09-28T19:36:12.199Z,2.63
2022-09-28T19:38:39.063Z,2.13
2022-09-28T19:41:12.953Z,2.22
2022-09-28T19:43:43.634Z,3.05
2022-09-28T19:46:10.231Z,3.80
2022-09-28T19:48:36.604Z,4.43
2022-09-28T19:51:04.426Z,5.38
2022-09-28T19:53:37.610Z,5.47
2022-09-28T19:56:05.471Z,4.25
2022-09-28T19:58:33.108Z,4.13
2022-09-28T20:00:59.598Z,4.20
2022-09-28T20:03:26.178Z,3.85
2022-09-28T20:05:59.116Z,4.00
2022-09-28T20:08:26.177Z,3.92
2022-09-28T20:10:54.441Z,3.80
2022-09-28T20:13:21.222Z,3.85
2022-09-28T20:15:48.146Z,3.33
2022-09-28T20:18:14.805Z,4.00
2022-09-28T20:20:42.090Z,4.20
2022-09-28T20:23:09.180Z,4.35
2022-09-28T20:25:35.716Z,4.57
2022-09-28T20:28:02.063Z,4.53
2022-09-28T20:30:28.354Z,5.10
2022-09-28T20:32:54.883Z,5.20
2022-09-28T20:35:32.087Z,4.90
2022-09-28T20:38:07.699Z,5.05
2022-09-28T20:40:35.149Z,5.00
2022-09-28T20:43:01.657Z,5.50
2022-09-28T20:45:27.955Z,5.47
2022-09-28T20:47:54.283Z,5.63
2022-09-28T20:50:21.909Z,5.53
2022-09-28T20:52:48.419Z,5.35
2022-09-28T20:55:14.791Z,4.85
2022-09-28T20:57:41.343Z,5.05
2022-09-28T21:00:08.742Z,5.30
2022-09-28T21:02:35.073Z,5.55
2022-09-28T21:05:01.649Z,5.13
2022-09-28T21:07:27.966Z,5.13
2022-09-28T21:09:54.258Z,5.70
2022-09-28T21:12:20.616Z,6.10
2022-09-28T21:14:47.021Z,5.82
2022-09-28T21:17:13.347Z,6.05
2022-09-28T21:19:39.679Z,6.40
2022-09-28T21:22:06.848Z,5.95
2022-09-28T21:24:33.379Z,5.25
2022-09-28T21:26:59.694Z,5.40
2022-09-28T21:29:26.176Z,5.70
2022-09-28T21:31:52.466Z,5.47
2022-09-28T21:34:20.001Z,5.90
2022-09-28T21:36:47.662Z,5.88
2022-09-28T21:39:14.347Z,5.03
2022-09-28T21:41:40.975Z,4.15
2022-09-28T21:44:08.536Z,4.63
2022-09-28T21:46:35.486Z,5.40
2022-09-28T21:49:02.827Z,4.55
2022-09-28T21:51:29.474Z,4.60
2022-09-28T21:53:56.456Z,4.15
2022-09-28T21:56:24.159Z,4.45
2022-09-28T21:58:50.781Z,4.38
2022-09-28T22:01:19.498Z,4.78
2022-09-28T22:03:47.840Z,5.07
2022-09-28T22:06:15.099Z,4.88
2022-09-28T22:08:41.502Z,5.45
2022-09-28T22:11:07.767Z,5.13
2022-09-28T22:13:35.698Z,7.20
2022-09-28T22:16:02.626Z,5.15
2022-09-28T22:18:30.131Z,5.00
2022-09-28T22:21:00.219Z,4.95
2022-09-28T22:23:27.601Z,4.40
2022-09-28T22:26:00.047Z,4.90
2022-09-28T22:28:26.754Z,4.30
2022-09-28T22:30:53.388Z,4.25
2022-09-28T22:33:20.031Z,4.85
2022-09-28T22:35:48.999Z,4.38
2022-09-28T22:38:15.478Z,3.72
2022-09-28T22:40:42.460Z,5.00
2022-09-28T22:43:08.786Z,4.15
2022-09-28T22:45:35.076Z,4.60
2022-09-28T22:48:01.462Z,4.65
2022-09-28T22:50:27.744Z,4.90
2022-09-28T22:52:56.135Z,5.30
2022-09-28T22:55:22.458Z,5.35
2022-09-28T22:57:49.040Z,5.40
2022-09-28T23:00:15.558Z,5.30
2022-09-28T23:02:41.898Z,5.65
2022-09-28T23:05:08.496Z,4.93
2022-09-28T23:07:34.768Z,5.35
2022-09-28T23:10:01.059Z,5.40
2022-09-28T23:12:27.698Z,5.45
2022-09-28T23:14:54.097Z,4.82
2022-09-28T23:17:20.428Z,5.05
2022-09-28T23:19:46.708Z,4.68
2022-09-28T23:22:13.323Z,5.03
2022-09-28T23:24:39.703Z,4.63
2022-09-28T23:27:07.075Z,4.47
2022-09-28T23:29:33.634Z,4.30
2022-09-28T23:32:00.054Z,4.22
2022-09-28T23:34:26.372Z,4.30
2022-09-28T23:36:52.829Z,4.10
2022-09-28T23:39:19.239Z,4.18
2022-09-28T23:41:45.590Z,3.78
2022-09-28T23:44:11.919Z,3.55
2022-09-28T23:46:38.703Z,3.83
2022-09-28T23:49:05.058Z,3.72
2022-09-28T23:51:31.807Z,3.80
2022-09-28T23:53:58.437Z,4.90
2022-09-28T23:56:24.748Z,4.50
2022-09-28T23:58:51.291Z,4.43
